Austin, Colorado
Current Conditions -  °F | °C
As of 6:55 AM on Thursday 23 Oct 2014 (Local Time) from KAJZ Reporting Station
Clear Clear  
Wind Chill: 36°   Ceiling: Unl
Heat Index: 40°   Visibility: 10mi
Dew Point: 34°   Wind: 6mph
Humidity: 77%   Direction: 30°NNE
Pressure: 30.27"   Gusts: NA
Location:  38.78°N, 107.95°W
Report Text: KAJZ 231255Z AUTO 03005KT 10SM CLR 05/01 A3027 RMK AO2 T00470009
Loading
Personal Weather Stations






























Interactive Weather Map
Tropical Storm Tracking
New forecast layout! Learn more

10-Day Weather Forecast

Advertisements
Track Severe Weather on mobile